sensor_id;sensor_type;location;lat;lon;timestamp;P1;durP1;ratioP1;P2;durP2;ratioP2
79693;SDS011;69165;52.714;13.200;2023-04-24T05:02:15;8.17;;;7.00;;
79693;SDS011;69165;52.714;13.200;2023-04-24T05:04:16;8.73;;;7.03;;
79693;SDS011;69165;52.714;13.200;2023-04-24T05:06:18;11.67;;;7.30;;
79693;SDS011;69165;52.714;13.200;2023-04-24T05:08:20;11.57;;;8.27;;
79693;SDS011;69165;52.714;13.200;2023-04-24T05:10:21;11.50;;;7.57;;
79693;SDS011;69165;52.714;13.200;2023-04-24T05:12:23;10.57;;;8.17;;
79693;SDS011;69165;52.714;13.200;2023-04-24T05:14:25;11.20;;;8.40;;
79693;SDS011;69165;52.714;13.200;2023-04-24T05:16:26;15.53;;;8.40;;
79693;SDS011;69165;52.714;13.200;2023-04-24T05:18:28;11.23;;;8.00;;
79693;SDS011;69165;52.714;13.200;2023-04-24T05:20:30;11.13;;;7.70;;
79693;SDS011;69165;52.714;13.200;2023-04-24T05:22:32;10.80;;;6.93;;
79693;SDS011;69165;52.714;13.200;2023-04-24T05:24:33;13.80;;;7.00;;
79693;SDS011;69165;52.714;13.200;2023-04-24T05:26:35;13.03;;;8.93;;
79693;SDS011;69165;52.714;13.200;2023-04-24T05:28:37;10.77;;;7.57;;
79693;SDS011;69165;52.714;13.200;2023-04-24T05:30:38;18.57;;;6.87;;
79693;SDS011;69165;52.714;13.200;2023-04-24T05:32:40;16.40;;;6.53;;
79693;SDS011;69165;52.714;13.200;2023-04-24T05:34:41;10.87;;;7.17;;
79693;SDS011;69165;52.714;13.200;2023-04-24T05:36:44;9.50;;;6.00;;
79693;SDS011;69165;52.714;13.200;2023-04-24T05:38:45;11.37;;;6.70;;
79693;SDS011;69165;52.714;13.200;2023-04-24T05:40:47;9.73;;;7.37;;
79693;SDS011;69165;52.714;13.200;2023-04-24T05:42:49;10.47;;;6.83;;
79693;SDS011;69165;52.714;13.200;2023-04-24T05:44:50;8.97;;;7.17;;
79693;SDS011;69165;52.714;13.200;2023-04-24T05:46:52;9.73;;;6.80;;
79693;SDS011;69165;52.714;13.200;2023-04-24T05:48:53;6.07;;;5.50;;
79693;SDS011;69165;52.714;13.200;2023-04-24T05:50:56;6.97;;;6.27;;
79693;SDS011;69165;52.714;13.200;2023-04-24T05:52:57;13.03;;;6.20;;
79693;SDS011;69165;52.714;13.200;2023-04-24T05:54:59;5.77;;;5.17;;
79693;SDS011;69165;52.714;13.200;2023-04-24T05:57:01;7.17;;;6.20;;
79693;SDS011;69165;52.714;13.200;2023-04-24T05:59:02;8.33;;;5.10;;
79693;SDS011;69165;52.714;13.200;2023-04-24T06:01:04;7.53;;;5.87;;
79693;SDS011;69165;52.714;13.200;2023-04-24T06:03:05;5.63;;;4.97;;
79693;SDS011;69165;52.714;13.200;2023-04-24T06:05:07;5.37;;;4.70;;
79693;SDS011;69165;52.714;13.200;2023-04-24T06:07:10;7.63;;;4.87;;
79693;SDS011;69165;52.714;13.200;2023-04-24T06:09:10;5.20;;;4.63;;
79693;SDS011;69165;52.714;13.200;2023-04-24T06:11:12;4.40;;;4.03;;
79693;SDS011;69165;52.714;13.200;2023-04-24T06:13:14;3.87;;;3.57;;
79693;SDS011;69165;52.714;13.200;2023-04-24T06:15:17;4.93;;;3.57;;
79693;SDS011;69165;52.714;13.200;2023-04-24T06:17:18;18.83;;;4.17;;
79693;SDS011;69165;52.714;13.200;2023-04-24T06:19:20;3.87;;;3.47;;
79693;SDS011;69165;52.714;13.200;2023-04-24T06:21:22;4.43;;;4.00;;
79693;SDS011;69165;52.714;13.200;2023-04-24T06:23:23;3.50;;;3.30;;
79693;SDS011;69165;52.714;13.200;2023-04-24T06:25:26;4.83;;;3.90;;
79693;SDS011;69165;52.714;13.200;2023-04-24T06:27:29;17.53;;;3.57;;
79693;SDS011;69165;52.714;13.200;2023-04-24T06:29:32;2.90;;;2.70;;
79693;SDS011;69165;52.714;13.200;2023-04-24T06:31:33;3.73;;;3.43;;
79693;SDS011;69165;52.714;13.200;2023-04-24T06:33:34;4.77;;;3.10;;
79693;SDS011;69165;52.714;13.200;2023-04-24T06:35:36;3.60;;;3.30;;
79693;SDS011;69165;52.714;13.200;2023-04-24T06:37:39;6.70;;;2.80;;
79693;SDS011;69165;52.714;13.200;2023-04-24T06:39:40;3.10;;;2.90;;
79693;SDS011;69165;52.714;13.200;2023-04-24T06:41:41;3.10;;;2.83;;
79693;SDS011;69165;52.714;13.200;2023-04-24T06:43:43;2.77;;;2.67;;
79693;SDS011;69165;52.714;13.200;2023-04-24T06:45:45;2.37;;;2.10;;
79693;SDS011;69165;52.714;13.200;2023-04-24T06:47:46;2.83;;;2.70;;
79693;SDS011;69165;52.714;13.200;2023-04-24T06:49:48;3.27;;;3.07;;
79693;SDS011;69165;52.714;13.200;2023-04-24T06:51:49;3.47;;;2.80;;
79693;SDS011;69165;52.714;13.200;2023-04-24T06:53:51;4.90;;;2.60;;
79693;SDS011;69165;52.714;13.200;2023-04-24T06:55:53;2.77;;;2.57;;
79693;SDS011;69165;52.714;13.200;2023-04-24T06:57:54;3.10;;;2.80;;
79693;SDS011;69165;52.714;13.200;2023-04-24T06:59:56;2.60;;;2.50;;
79693;SDS011;69165;52.714;13.200;2023-04-24T07:01:58;2.43;;;2.33;;
79693;SDS011;69165;52.714;13.200;2023-04-24T07:04:00;3.53;;;2.33;;
79693;SDS011;69165;52.714;13.200;2023-04-24T07:06:02;5.90;;;2.33;;
79693;SDS011;69165;52.714;13.200;2023-04-24T07:08:03;3.93;;;2.33;;
79693;SDS011;69165;52.714;13.200;2023-04-24T07:10:05;2.47;;;2.27;;
79693;SDS011;69165;52.714;13.200;2023-04-24T07:12:08;5.40;;;2.20;;
79693;SDS011;69165;52.714;13.200;2023-04-24T07:14:09;2.60;;;2.03;;
79693;SDS011;69165;52.714;13.200;2023-04-24T07:16:10;2.17;;;2.07;;
79693;SDS011;69165;52.714;13.200;2023-04-24T07:18:12;2.10;;;2.10;;
79693;SDS011;69165;52.714;13.200;2023-04-24T07:20:14;2.07;;;1.90;;
79693;SDS011;69165;52.714;13.200;2023-04-24T07:22:16;2.00;;;1.90;;
79693;SDS011;69165;52.714;13.200;2023-04-24T07:24:18;2.30;;;1.20;;
79693;SDS011;69165;52.714;13.200;2023-04-24T07:26:19;1.60;;;1.50;;
79693;SDS011;69165;52.714;13.200;2023-04-24T07:28:21;1.60;;;1.60;;
79693;SDS011;69165;52.714;13.200;2023-04-24T07:30:23;1.70;;;1.60;;
79693;SDS011;69165;52.714;13.200;2023-04-24T07:32:25;1.80;;;1.80;;
79693;SDS011;69165;52.714;13.200;2023-04-24T07:34:26;2.30;;;1.57;;
79693;SDS011;69165;52.714;13.200;2023-04-24T07:36:28;8.03;;;1.90;;
79693;SDS011;69165;52.714;13.200;2023-04-24T07:38:30;7.97;;;1.67;;
79693;SDS011;69165;52.714;13.200;2023-04-24T07:40:31;1.77;;;1.67;;
79693;SDS011;69165;52.714;13.200;2023-04-24T07:42:33;1.20;;;1.20;;
79693;SDS011;69165;52.714;13.200;2023-04-24T07:44:34;1.73;;;1.63;;
79693;SDS011;69165;52.714;13.200;2023-04-24T07:46:37;2.80;;;1.67;;
79693;SDS011;69165;52.714;13.200;2023-04-24T07:48:40;1.53;;;1.43;;
79693;SDS011;69165;52.714;13.200;2023-04-24T07:50:42;4.30;;;1.57;;
79693;SDS011;69165;52.714;13.200;2023-04-24T07:52:44;1.47;;;1.47;;
79693;SDS011;69165;52.714;13.200;2023-04-24T07:54:45;1.00;;;1.00;;
79693;SDS011;69165;52.714;13.200;2023-04-24T07:56:47;1.67;;;1.30;;
79693;SDS011;69165;52.714;13.200;2023-04-24T07:58:49;1.30;;;1.20;;
79693;SDS011;69165;52.714;13.200;2023-04-24T08:00:50;4.53;;;1.67;;
79693;SDS011;69165;52.714;13.200;2023-04-24T08:02:53;1.33;;;1.33;;
79693;SDS011;69165;52.714;13.200;2023-04-24T08:04:55;1.70;;;1.60;;
79693;SDS011;69165;52.714;13.200;2023-04-24T08:06:57;1.73;;;1.17;;
79693;SDS011;69165;52.714;13.200;2023-04-24T08:08:59;1.10;;;1.10;;
79693;SDS011;69165;52.714;13.200;2023-04-24T08:11:00;1.60;;;1.50;;
79693;SDS011;69165;52.714;13.200;2023-04-24T08:13:02;1.97;;;1.30;;
79693;SDS011;69165;52.714;13.200;2023-04-24T08:15:04;1.23;;;1.23;;
79693;SDS011;69165;52.714;13.200;2023-04-24T08:17:06;1.77;;;1.20;;
79693;SDS011;69165;52.714;13.200;2023-04-24T08:19:08;1.30;;;1.30;;
79693;SDS011;69165;52.714;13.200;2023-04-24T08:21:09;4.63;;;1.30;;
79693;SDS011;69165;52.714;13.200;2023-04-24T08:23:12;1.53;;;1.53;;
79693;SDS011;69165;52.714;13.200;2023-04-24T08:25:14;1.70;;;1.60;;
79693;SDS011;69165;52.714;13.200;2023-04-24T08:27:16;1.30;;;1.20;;
79693;SDS011;69165;52.714;13.200;2023-04-24T08:29:17;2.50;;;1.20;;
79693;SDS011;69165;52.714;13.200;2023-04-24T08:31:19;2.20;;;1.30;;
79693;SDS011;69165;52.714;13.200;2023-04-24T08:33:22;3.03;;;1.30;;
79693;SDS011;69165;52.714;13.200;2023-04-24T08:35:23;1.43;;;1.27;;
79693;SDS011;69165;52.714;13.200;2023-04-24T08:37:25;1.20;;;1.20;;
79693;SDS011;69165;52.714;13.200;2023-04-24T08:39:27;1.20;;;1.20;;
79693;SDS011;69165;52.714;13.200;2023-04-24T08:41:28;1.33;;;1.17;;
79693;SDS011;69165;52.714;13.200;2023-04-24T08:43:30;1.30;;;1.30;;
79693;SDS011;69165;52.714;13.200;2023-04-24T08:45:32;1.67;;;1.40;;
79693;SDS011;69165;52.714;13.200;2023-04-24T08:47:33;9.20;;;1.43;;
79693;SDS011;69165;52.714;13.200;2023-04-24T08:49:35;1.33;;;1.30;;
79693;SDS011;69165;52.714;13.200;2023-04-24T08:51:37;3.20;;;1.33;;
79693;SDS011;69165;52.714;13.200;2023-04-24T08:53:40;1.10;;;1.10;;
79693;SDS011;69165;52.714;13.200;2023-04-24T08:55:41;2.30;;;1.00;;
79693;SDS011;69165;52.714;13.200;2023-04-24T08:57:44;0.97;;;0.97;;
79693;SDS011;69165;52.714;13.200;2023-04-24T08:59:45;1.50;;;1.40;;
79693;SDS011;69165;52.714;13.200;2023-04-24T09:01:47;1.47;;;1.37;;
79693;SDS011;69165;52.714;13.200;2023-04-24T09:03:50;1.03;;;0.90;;
79693;SDS011;69165;52.714;13.200;2023-04-24T09:05:52;1.53;;;1.30;;
79693;SDS011;69165;52.714;13.200;2023-04-24T09:07:54;0.93;;;0.93;;
79693;SDS011;69165;52.714;13.200;2023-04-24T09:09:55;1.00;;;0.97;;
79693;SDS011;69165;52.714;13.200;2023-04-24T09:11:56;1.23;;;1.23;;
79693;SDS011;69165;52.714;13.200;2023-04-24T09:13:59;1.17;;;1.17;;
79693;SDS011;69165;52.714;13.200;2023-04-24T09:16:00;2.10;;;1.27;;
79693;SDS011;69165;52.714;13.200;2023-04-24T09:18:02;1.50;;;1.40;;
79693;SDS011;69165;52.714;13.200;2023-04-24T09:20:05;1.53;;;1.43;;
79693;SDS011;69165;52.714;13.200;2023-04-24T09:22:07;1.53;;;1.30;;
79693;SDS011;69165;52.714;13.200;2023-04-24T09:24:14;5.23;;;1.10;;
79693;SDS011;69165;52.714;13.200;2023-04-24T09:26:11;1.07;;;1.07;;
79693;SDS011;69165;52.714;13.200;2023-04-24T09:28:12;1.20;;;1.20;;
79693;SDS011;69165;52.714;13.200;2023-04-24T09:30:15;1.40;;;1.30;;
79693;SDS011;69165;52.714;13.200;2023-04-24T09:32:18;2.63;;;1.50;;
79693;SDS011;69165;52.714;13.200;2023-04-24T09:34:21;1.73;;;1.40;;
79693;SDS011;69165;52.714;13.200;2023-04-24T09:36:27;2.97;;;1.07;;
79693;SDS011;69165;52.714;13.200;2023-04-24T09:38:31;3.03;;;1.50;;
79693;SDS011;69165;52.714;13.200;2023-04-24T09:40:34;1.23;;;1.23;;
79693;SDS011;69165;52.714;13.200;2023-04-24T09:42:34;2.30;;;1.47;;
79693;SDS011;69165;52.714;13.200;2023-04-24T09:44:36;1.73;;;1.60;;
79693;SDS011;69165;52.714;13.200;2023-04-24T09:46:37;1.60;;;1.50;;
79693;SDS011;69165;52.714;13.200;2023-04-24T09:48:39;1.47;;;1.37;;
79693;SDS011;69165;52.714;13.200;2023-04-24T09:50:45;1.40;;;1.30;;
79693;SDS011;69165;52.714;13.200;2023-04-24T09:52:44;2.57;;;1.50;;
79693;SDS011;69165;52.714;13.200;2023-04-24T09:54:45;2.13;;;1.40;;
79693;SDS011;69165;52.714;13.200;2023-04-24T09:56:48;1.47;;;1.47;;
79693;SDS011;69165;52.714;13.200;2023-04-24T09:58:48;2.30;;;1.30;;
79693;SDS011;69165;52.714;13.200;2023-04-24T10:00:49;1.20;;;1.20;;
79693;SDS011;69165;52.714;13.200;2023-04-24T10:02:54;1.07;;;1.07;;
79693;SDS011;69165;52.714;13.200;2023-04-24T10:05:03;2.70;;;1.57;;
79693;SDS011;69165;52.714;13.200;2023-04-24T10:07:05;2.03;;;1.53;;
79693;SDS011;69165;52.714;13.200;2023-04-24T10:09:07;1.50;;;1.40;;
79693;SDS011;69165;52.714;13.200;2023-04-24T10:11:09;2.00;;;1.33;;
79693;SDS011;69165;52.714;13.200;2023-04-24T10:13:11;1.93;;;1.90;;
79693;SDS011;69165;52.714;13.200;2023-04-24T10:15:12;1.83;;;1.27;;
79693;SDS011;69165;52.714;13.200;2023-04-24T10:17:14;2.70;;;1.30;;
79693;SDS011;69165;52.714;13.200;2023-04-24T10:19:16;2.13;;;1.27;;
79693;SDS011;69165;52.714;13.200;2023-04-24T10:21:20;10.20;;;1.53;;
79693;SDS011;69165;52.714;13.200;2023-04-24T10:23:23;2.23;;;2.03;;
79693;SDS011;69165;52.714;13.200;2023-04-24T10:25:26;3.50;;;1.30;;
79693;SDS011;69165;52.714;13.200;2023-04-24T10:27:28;1.40;;;1.30;;
79693;SDS011;69165;52.714;13.200;2023-04-24T10:29:29;1.63;;;1.53;;
79693;SDS011;69165;52.714;13.200;2023-04-24T10:31:31;2.30;;;1.40;;
79693;SDS011;69165;52.714;13.200;2023-04-24T10:33:33;1.93;;;1.80;;
79693;SDS011;69165;52.714;13.200;2023-04-24T10:35:40;7.13;;;1.43;;
79693;SDS011;69165;52.714;13.200;2023-04-24T10:37:44;2.50;;;1.70;;
79693;SDS011;69165;52.714;13.200;2023-04-24T10:39:47;1.67;;;1.57;;
79693;SDS011;69165;52.714;13.200;2023-04-24T10:41:49;4.57;;;1.70;;
79693;SDS011;69165;52.714;13.200;2023-04-24T10:46:04;1.63;;;1.53;;
79693;SDS011;69165;52.714;13.200;2023-04-24T10:48:06;2.30;;;1.70;;
79693;SDS011;69165;52.714;13.200;2023-04-24T10:50:10;1.63;;;1.63;;
79693;SDS011;69165;52.714;13.200;2023-04-24T10:52:12;1.43;;;1.43;;
79693;SDS011;69165;52.714;13.200;2023-04-24T10:56:28;1.40;;;1.40;;
79693;SDS011;69165;52.714;13.200;2023-04-24T11:00:39;1.30;;;1.30;;
79693;SDS011;69165;52.714;13.200;2023-04-24T11:02:40;1.80;;;1.67;;
79693;SDS011;69165;52.714;13.200;2023-04-24T11:04:42;5.90;;;1.90;;
79693;SDS011;69165;52.714;13.200;2023-04-24T11:06:44;3.83;;;1.50;;
79693;SDS011;69165;52.714;13.200;2023-04-24T11:08:45;1.73;;;1.20;;
79693;SDS011;69165;52.714;13.200;2023-04-24T11:10:50;1.40;;;1.40;;
79693;SDS011;69165;52.714;13.200;2023-04-24T11:12:50;5.47;;;1.60;;
79693;SDS011;69165;52.714;13.200;2023-04-24T11:14:59;1.53;;;1.43;;
79693;SDS011;69165;52.714;13.200;2023-04-24T11:16:59;2.00;;;1.90;;
79693;SDS011;69165;52.714;13.200;2023-04-24T11:19:03;2.20;;;1.40;;
79693;SDS011;69165;52.714;13.200;2023-04-24T11:21:11;3.80;;;2.03;;
79693;SDS011;69165;52.714;13.200;2023-04-24T11:23:12;1.30;;;1.20;;
79693;SDS011;69165;52.714;13.200;2023-04-24T11:25:14;2.80;;;1.83;;
79693;SDS011;69165;52.714;13.200;2023-04-24T11:27:16;12.30;;;2.13;;
79693;SDS011;69165;52.714;13.200;2023-04-24T11:29:17;15.47;;;2.53;;
79693;SDS011;69165;52.714;13.200;2023-04-24T11:33:32;3.87;;;1.53;;
79693;SDS011;69165;52.714;13.200;2023-04-24T11:35:35;4.70;;;1.20;;
79693;SDS011;69165;52.714;13.200;2023-04-24T11:37:38;0.90;;;0.90;;
79693;SDS011;69165;52.714;13.200;2023-04-24T11:39:38;1.70;;;1.60;;
79693;SDS011;69165;52.714;13.200;2023-04-24T11:41:40;1.50;;;1.40;;
79693;SDS011;69165;52.714;13.200;2023-04-24T11:43:42;2.10;;;1.50;;
79693;SDS011;69165;52.714;13.200;2023-04-24T11:45:47;2.60;;;1.50;;
79693;SDS011;69165;52.714;13.200;2023-04-24T11:47:45;1.57;;;1.43;;
79693;SDS011;69165;52.714;13.200;2023-04-24T11:49:49;1.60;;;1.60;;
79693;SDS011;69165;52.714;13.200;2023-04-24T11:51:49;2.57;;;1.43;;
79693;SDS011;69165;52.714;13.200;2023-04-24T11:53:51;1.97;;;1.90;;
79693;SDS011;69165;52.714;13.200;2023-04-24T11:55:53;21.73;;;1.60;;
79693;SDS011;69165;52.714;13.200;2023-04-24T11:57:55;1.93;;;1.73;;
79693;SDS011;69165;52.714;13.200;2023-04-24T11:59:56;12.03;;;2.20;;
79693;SDS011;69165;52.714;13.200;2023-04-24T12:01:58;2.00;;;1.90;;
79693;SDS011;69165;52.714;13.200;2023-04-24T12:04:00;4.00;;;1.60;;
79693;SDS011;69165;52.714;13.200;2023-04-24T12:06:06;2.40;;;2.20;;
79693;SDS011;69165;52.714;13.200;2023-04-24T12:08:07;1.83;;;1.73;;
79693;SDS011;69165;52.714;13.200;2023-04-24T12:10:08;2.00;;;1.90;;
79693;SDS011;69165;52.714;13.200;2023-04-24T12:12:11;2.33;;;1.70;;
79693;SDS011;69165;52.714;13.200;2023-04-24T12:14:12;1.93;;;1.83;;
79693;SDS011;69165;52.714;13.200;2023-04-24T12:16:14;1.90;;;1.80;;
79693;SDS011;69165;52.714;13.200;2023-04-24T12:18:16;2.00;;;1.90;;
79693;SDS011;69165;52.714;13.200;2023-04-24T12:20:22;3.23;;;1.93;;
79693;SDS011;69165;52.714;13.200;2023-04-24T12:22:19;5.13;;;2.00;;
79693;SDS011;69165;52.714;13.200;2023-04-24T12:24:20;1.87;;;1.77;;
79693;SDS011;69165;52.714;13.200;2023-04-24T12:26:22;1.50;;;1.50;;
79693;SDS011;69165;52.714;13.200;2023-04-24T12:28:24;1.70;;;1.50;;
79693;SDS011;69165;52.714;13.200;2023-04-24T12:30:26;1.50;;;1.50;;
79693;SDS011;69165;52.714;13.200;2023-04-24T12:32:28;2.53;;;1.30;;
79693;SDS011;69165;52.714;13.200;2023-04-24T12:34:31;1.37;;;1.37;;
79693;SDS011;69165;52.714;13.200;2023-04-24T12:36:32;1.53;;;1.43;;
79693;SDS011;69165;52.714;13.200;2023-04-24T12:38:34;3.03;;;1.00;;
79693;SDS011;69165;52.714;13.200;2023-04-24T12:40:36;1.50;;;1.40;;
79693;SDS011;69165;52.714;13.200;2023-04-24T12:42:43;4.30;;;1.50;;
79693;SDS011;69165;52.714;13.200;2023-04-24T12:44:44;1.83;;;1.73;;
79693;SDS011;69165;52.714;13.200;2023-04-24T12:46:45;2.30;;;2.20;;
79693;SDS011;69165;52.714;13.200;2023-04-24T12:48:47;2.13;;;2.00;;
79693;SDS011;69165;52.714;13.200;2023-04-24T12:50:48;2.23;;;2.13;;
79693;SDS011;69165;52.714;13.200;2023-04-24T12:52:50;1.90;;;1.80;;
79693;SDS011;69165;52.714;13.200;2023-04-24T12:54:53;2.03;;;1.90;;
79693;SDS011;69165;52.714;13.200;2023-04-24T12:56:54;1.97;;;1.87;;
79693;SDS011;69165;52.714;13.200;2023-04-24T12:58:56;2.40;;;2.20;;
79693;SDS011;69165;52.714;13.200;2023-04-24T13:00:57;14.13;;;2.67;;
79693;SDS011;69165;52.714;13.200;2023-04-24T13:02:59;2.43;;;2.20;;
79693;SDS011;69165;52.714;13.200;2023-04-24T13:05:01;5.53;;;2.67;;
79693;SDS011;69165;52.714;13.200;2023-04-24T13:07:03;3.03;;;2.83;;
79693;SDS011;69165;52.714;13.200;2023-04-24T13:09:05;3.30;;;3.10;;
79693;SDS011;69165;52.714;13.200;2023-04-24T13:11:07;2.93;;;2.70;;
79693;SDS011;69165;52.714;13.200;2023-04-24T13:13:09;2.60;;;2.50;;
79693;SDS011;69165;52.714;13.200;2023-04-24T13:15:11;5.47;;;3.10;;
79693;SDS011;69165;52.714;13.200;2023-04-24T13:17:13;2.40;;;2.20;;
79693;SDS011;69165;52.714;13.200;2023-04-24T13:19:14;2.70;;;2.60;;
79693;SDS011;69165;52.714;13.200;2023-04-24T13:21:16;2.93;;;2.73;;
79693;SDS011;69165;52.714;13.200;2023-04-24T13:23:17;3.53;;;2.40;;
79693;SDS011;69165;52.714;13.200;2023-04-24T13:25:19;2.37;;;2.13;;
79693;SDS011;69165;52.714;13.200;2023-04-24T13:27:21;1.80;;;1.80;;
79693;SDS011;69165;52.714;13.200;2023-04-24T13:29:22;2.10;;;2.00;;
79693;SDS011;69165;52.714;13.200;2023-04-24T13:31:24;3.80;;;2.00;;
79693;SDS011;69165;52.714;13.200;2023-04-24T13:33:25;3.53;;;2.10;;
79693;SDS011;69165;52.714;13.200;2023-04-24T13:35:27;4.30;;;2.17;;
79693;SDS011;69165;52.714;13.200;2023-04-24T13:37:29;1.63;;;1.63;;
79693;SDS011;69165;52.714;13.200;2023-04-24T13:39:30;2.40;;;1.90;;
79693;SDS011;69165;52.714;13.200;2023-04-24T13:41:32;2.20;;;1.90;;
79693;SDS011;69165;52.714;13.200;2023-04-24T13:43:33;1.80;;;1.80;;
79693;SDS011;69165;52.714;13.200;2023-04-24T13:45:35;1.80;;;1.70;;
79693;SDS011;69165;52.714;13.200;2023-04-24T13:47:37;4.00;;;1.63;;
79693;SDS011;69165;52.714;13.200;2023-04-24T13:49:38;3.83;;;1.80;;
79693;SDS011;69165;52.714;13.200;2023-04-24T13:51:40;2.07;;;1.87;;
79693;SDS011;69165;52.714;13.200;2023-04-24T13:53:42;1.57;;;1.43;;
79693;SDS011;69165;52.714;13.200;2023-04-24T13:55:43;1.90;;;1.80;;
79693;SDS011;69165;52.714;13.200;2023-04-24T13:57:45;2.30;;;1.60;;
79693;SDS011;69165;52.714;13.200;2023-04-24T13:59:47;2.03;;;1.70;;
79693;SDS011;69165;52.714;13.200;2023-04-24T14:01:50;1.80;;;1.70;;
79693;SDS011;69165;52.714;13.200;2023-04-24T14:03:53;1.90;;;1.90;;
79693;SDS011;69165;52.714;13.200;2023-04-24T14:05:55;4.63;;;1.60;;
79693;SDS011;69165;52.714;13.200;2023-04-24T14:07:56;2.73;;;1.70;;
79693;SDS011;69165;52.714;13.200;2023-04-24T14:09:58;1.77;;;1.67;;
79693;SDS011;69165;52.714;13.200;2023-04-24T14:11:59;1.30;;;1.30;;
79693;SDS011;69165;52.714;13.200;2023-04-24T14:14:01;1.63;;;1.63;;
79693;SDS011;69165;52.714;13.200;2023-04-24T14:16:03;1.80;;;1.70;;
79693;SDS011;69165;52.714;13.200;2023-04-24T14:18:05;2.17;;;2.03;;
79693;SDS011;69165;52.714;13.200;2023-04-24T14:20:06;2.10;;;2.00;;
79693;SDS011;69165;52.714;13.200;2023-04-24T14:22:09;13.50;;;2.00;;
79693;SDS011;69165;52.714;13.200;2023-04-24T14:24:10;2.43;;;2.20;;
79693;SDS011;69165;52.714;13.200;2023-04-24T14:26:11;1.67;;;1.60;;
79693;SDS011;69165;52.714;13.200;2023-04-24T14:28:13;1.90;;;1.90;;
79693;SDS011;69165;52.714;13.200;2023-04-24T14:30:15;5.53;;;2.60;;
79693;SDS011;69165;52.714;13.200;2023-04-24T14:32:16;2.40;;;2.30;;
79693;SDS011;69165;52.714;13.200;2023-04-24T14:34:19;2.23;;;2.17;;
79693;SDS011;69165;52.714;13.200;2023-04-24T14:36:21;4.73;;;1.97;;
79693;SDS011;69165;52.714;13.200;2023-04-24T14:38:23;3.90;;;1.67;;
79693;SDS011;69165;52.714;13.200;2023-04-24T14:40:24;5.43;;;1.60;;
79693;SDS011;69165;52.714;13.200;2023-04-24T14:42:26;2.30;;;1.87;;
79693;SDS011;69165;52.714;13.200;2023-04-24T14:44:27;1.47;;;1.40;;
79693;SDS011;69165;52.714;13.200;2023-04-24T14:46:29;2.93;;;2.00;;
79693;SDS011;69165;52.714;13.200;2023-04-24T14:48:31;3.70;;;1.77;;
79693;SDS011;69165;52.714;13.200;2023-04-24T14:50:32;2.13;;;2.00;;
79693;SDS011;69165;52.714;13.200;2023-04-24T14:52:34;2.20;;;1.80;;
79693;SDS011;69165;52.714;13.200;2023-04-24T14:54:36;1.67;;;1.67;;
79693;SDS011;69165;52.714;13.200;2023-04-24T14:56:38;6.53;;;2.27;;
79693;SDS011;69165;52.714;13.200;2023-04-24T14:58:40;2.70;;;1.57;;
79693;SDS011;69165;52.714;13.200;2023-04-24T15:00:42;2.10;;;2.00;;
79693;SDS011;69165;52.714;13.200;2023-04-24T15:02:44;3.97;;;2.07;;
79693;SDS011;69165;52.714;13.200;2023-04-24T15:04:46;2.80;;;2.20;;
79693;SDS011;69165;52.714;13.200;2023-04-24T15:06:47;2.10;;;2.10;;
79693;SDS011;69165;52.714;13.200;2023-04-24T15:08:49;3.00;;;2.53;;
79693;SDS011;69165;52.714;13.200;2023-04-24T15:10:51;2.30;;;2.17;;
79693;SDS011;69165;52.714;13.200;2023-04-24T15:12:52;2.17;;;2.07;;
79693;SDS011;69165;52.714;13.200;2023-04-24T15:14:54;2.70;;;2.50;;
79693;SDS011;69165;52.714;13.200;2023-04-24T15:16:55;2.20;;;2.10;;
79693;SDS011;69165;52.714;13.200;2023-04-24T15:18:58;2.47;;;2.37;;
79693;SDS011;69165;52.714;13.200;2023-04-24T15:21:00;2.90;;;1.80;;
79693;SDS011;69165;52.714;13.200;2023-04-24T15:23:02;2.13;;;2.00;;
79693;SDS011;69165;52.714;13.200;2023-04-24T15:25:03;3.20;;;2.33;;
79693;SDS011;69165;52.714;13.200;2023-04-24T15:27:08;2.43;;;2.23;;
79693;SDS011;69165;52.714;13.200;2023-04-24T15:29:07;2.80;;;1.97;;
79693;SDS011;69165;52.714;13.200;2023-04-24T15:31:09;22.73;;;2.30;;
79693;SDS011;69165;52.714;13.200;2023-04-24T15:33:10;3.10;;;2.10;;
79693;SDS011;69165;52.714;13.200;2023-04-24T15:35:12;2.40;;;2.30;;
79693;SDS011;69165;52.714;13.200;2023-04-24T15:37:13;3.13;;;2.60;;
79693;SDS011;69165;52.714;13.200;2023-04-24T15:39:15;4.70;;;2.10;;
79693;SDS011;69165;52.714;13.200;2023-04-24T15:41:17;2.83;;;2.43;;
79693;SDS011;69165;52.714;13.200;2023-04-24T15:43:18;3.33;;;2.93;;
79693;SDS011;69165;52.714;13.200;2023-04-24T15:45:20;4.73;;;2.47;;
79693;SDS011;69165;52.714;13.200;2023-04-24T15:47:22;5.23;;;2.43;;
79693;SDS011;69165;52.714;13.200;2023-04-24T15:49:24;4.97;;;2.07;;
79693;SDS011;69165;52.714;13.200;2023-04-24T15:51:26;3.20;;;2.23;;
79693;SDS011;69165;52.714;13.200;2023-04-24T15:53:27;2.40;;;2.30;;
79693;SDS011;69165;52.714;13.200;2023-04-24T15:57:30;5.90;;;2.33;;
79693;SDS011;69165;52.714;13.200;2023-04-24T15:59:31;2.20;;;2.10;;
79693;SDS011;69165;52.714;13.200;2023-04-24T16:01:33;2.07;;;1.83;;
79693;SDS011;69165;52.714;13.200;2023-04-24T16:03:35;7.63;;;2.37;;
79693;SDS011;69165;52.714;13.200;2023-04-24T16:05:38;2.33;;;2.23;;
79693;SDS011;69165;52.714;13.200;2023-04-24T16:07:40;2.33;;;1.97;;
79693;SDS011;69165;52.714;13.200;2023-04-24T16:09:43;2.60;;;1.90;;
79693;SDS011;69165;52.714;13.200;2023-04-24T16:11:44;1.50;;;1.50;;
79693;SDS011;69165;52.714;13.200;2023-04-24T16:13:45;8.23;;;2.20;;
79693;SDS011;69165;52.714;13.200;2023-04-24T16:15:47;1.50;;;1.50;;
79693;SDS011;69165;52.714;13.200;2023-04-24T16:17:49;1.87;;;1.77;;
79693;SDS011;69165;52.714;13.200;2023-04-24T16:19:50;1.83;;;1.83;;
79693;SDS011;69165;52.714;13.200;2023-04-24T16:21:52;3.37;;;2.23;;
79693;SDS011;69165;52.714;13.200;2023-04-24T16:23:54;2.33;;;2.20;;
79693;SDS011;69165;52.714;13.200;2023-04-24T16:25:55;7.83;;;2.37;;
79693;SDS011;69165;52.714;13.200;2023-04-24T16:27:57;6.67;;;2.30;;
79693;SDS011;69165;52.714;13.200;2023-04-24T16:29:59;3.27;;;1.90;;
79693;SDS011;69165;52.714;13.200;2023-04-24T16:32:01;6.53;;;2.20;;
79693;SDS011;69165;52.714;13.200;2023-04-24T16:34:02;2.43;;;2.33;;
79693;SDS011;69165;52.714;13.200;2023-04-24T16:36:05;7.83;;;2.47;;
79693;SDS011;69165;52.714;13.200;2023-04-24T16:38:06;2.47;;;2.30;;
79693;SDS011;69165;52.714;13.200;2023-04-24T16:40:08;2.17;;;2.00;;
79693;SDS011;69165;52.714;13.200;2023-04-24T16:42:11;4.93;;;2.13;;
79693;SDS011;69165;52.714;13.200;2023-04-24T16:44:13;2.40;;;2.20;;
79693;SDS011;69165;52.714;13.200;2023-04-24T16:46:16;2.57;;;2.47;;
79693;SDS011;69165;52.714;13.200;2023-04-24T16:48:18;2.27;;;2.17;;
79693;SDS011;69165;52.714;13.200;2023-04-24T16:50:20;2.43;;;2.13;;
79693;SDS011;69165;52.714;13.200;2023-04-24T16:52:22;2.03;;;1.93;;
79693;SDS011;69165;52.714;13.200;2023-04-24T16:54:23;2.30;;;2.20;;
79693;SDS011;69165;52.714;13.200;2023-04-24T16:56:25;3.63;;;2.23;;
79693;SDS011;69165;52.714;13.200;2023-04-24T16:58:26;2.27;;;2.10;;
79693;SDS011;69165;52.714;13.200;2023-04-24T17:00:29;5.03;;;2.60;;
79693;SDS011;69165;52.714;13.200;2023-04-24T17:02:31;2.10;;;2.00;;
79693;SDS011;69165;52.714;13.200;2023-04-24T17:04:33;4.93;;;1.80;;
79693;SDS011;69165;52.714;13.200;2023-04-24T17:06:36;2.40;;;2.30;;
79693;SDS011;69165;52.714;13.200;2023-04-24T17:08:39;4.10;;;2.57;;
79693;SDS011;69165;52.714;13.200;2023-04-24T17:10:41;8.90;;;2.40;;
79693;SDS011;69165;52.714;13.200;2023-04-24T17:12:43;2.30;;;1.90;;
79693;SDS011;69165;52.714;13.200;2023-04-24T17:14:46;2.30;;;2.10;;